sensor_id;sensor_type;location;lat;lon;timestamp;pressure;altitude;pressure_sealevel;temperature;humidity
4590;BME280;2307;48.448;9.216;2022-09-28T00:01:57;93837.31;;;8.21;100.00
4590;BME280;2307;48.448;9.216;2022-09-28T00:04:23;93828.38;;;8.22;100.00
4590;BME280;2307;48.448;9.216;2022-09-28T00:06:49;93827.34;;;8.28;100.00
4590;BME280;2307;48.448;9.216;2022-09-28T00:09:16;93827.59;;;8.26;100.00
4590;BME280;2307;48.448;9.216;2022-09-28T00:11:44;93816.28;;;8.21;100.00
4590;BME280;2307;48.448;9.216;2022-09-28T00:14:11;93806.56;;;8.21;100.00
4590;BME280;2307;48.448;9.216;2022-09-28T00:16:38;93804.47;;;8.28;100.00
4590;BME280;2307;48.448;9.216;2022-09-28T00:19:06;93796.28;;;8.25;100.00
4590;BME280;2307;48.448;9.216;2022-09-28T00:21:33;93783.41;;;8.23;100.00
4590;BME280;2307;48.448;9.216;2022-09-28T00:24:00;93792.97;;;8.39;100.00
4590;BME280;2307;48.448;9.216;2022-09-28T00:26:40;93792.97;;;8.39;100.00
4590;BME280;2307;48.448;9.216;2022-09-28T00:29:12;93779.53;;;8.41;100.00
4590;BME280;2307;48.448;9.216;2022-09-28T00:31:40;93784.28;;;8.39;100.00
4590;BME280;2307;48.448;9.216;2022-09-28T00:34:06;93778.22;;;8.38;100.00
4590;BME280;2307;48.448;9.216;2022-09-28T00:36:33;93771.38;;;8.37;100.00
4590;BME280;2307;48.448;9.216;2022-09-28T00:39:02;93762.19;;;8.40;100.00
4590;BME280;2307;48.448;9.216;2022-09-28T00:41:29;93766.63;;;8.34;100.00
4590;BME280;2307;48.448;9.216;2022-09-28T00:46:38;93759.56;;;8.40;100.00
4590;BME280;2307;48.448;9.216;2022-09-28T00:49:05;93747.69;;;8.37;100.00
4590;BME280;2307;48.448;9.216;2022-09-28T00:51:35;93739.56;;;8.39;100.00
4590;BME280;2307;48.448;9.216;2022-09-28T00:54:03;93739.81;;;8.42;100.00
4590;BME280;2307;48.448;9.216;2022-09-28T00:56:32;93731.94;;;8.42;100.00
4590;BME280;2307;48.448;9.216;2022-09-28T00:59:01;93723.50;;;8.35;100.00
4590;BME280;2307;48.448;9.216;2022-09-28T01:01:28;93724.81;;;8.33;100.00
4590;BME280;2307;48.448;9.216;2022-09-28T01:03:58;93723.50;;;8.35;100.00
4590;BME280;2307;48.448;9.216;2022-09-28T01:06:27;93698.78;;;8.36;100.00
4590;BME280;2307;48.448;9.216;2022-09-28T01:08:57;93701.41;;;8.36;100.00
4590;BME280;2307;48.448;9.216;2022-09-28T01:11:24;93700.63;;;8.36;100.00
4590;BME280;2307;48.448;9.216;2022-09-28T01:13:51;93700.63;;;8.41;100.00
4590;BME280;2307;48.448;9.216;2022-09-28T01:16:22;93681.44;;;8.45;100.00
4590;BME280;2307;48.448;9.216;2022-09-28T01:18:53;93676.69;;;8.42;100.00
4590;BME280;2307;48.448;9.216;2022-09-28T01:21:24;93688.50;;;8.50;100.00
4590;BME280;2307;48.448;9.216;2022-09-28T01:26:42;93660.66;;;8.49;100.00
4590;BME280;2307;48.448;9.216;2022-09-28T01:29:14;93653.53;;;8.54;100.00
4590;BME280;2307;48.448;9.216;2022-09-28T01:31:43;93640.88;;;8.57;100.00
4590;BME280;2307;48.448;9.216;2022-09-28T01:34:11;93653.00;;;8.63;100.00
4590;BME280;2307;48.448;9.216;2022-09-28T01:36:40;93661.97;;;8.62;100.00
4590;BME280;2307;48.448;9.216;2022-09-28T01:39:09;93659.84;;;8.59;100.00
4590;BME280;2307;48.448;9.216;2022-09-28T01:41:37;93641.94;;;8.61;100.00
4590;BME280;2307;48.448;9.216;2022-09-28T01:44:07;93648.78;;;8.57;100.00
4590;BME280;2307;48.448;9.216;2022-09-28T01:46:35;93639.34;;;8.56;100.00
4590;BME280;2307;48.448;9.216;2022-09-28T01:49:04;93650.13;;;8.59;100.00
4590;BME280;2307;48.448;9.216;2022-09-28T01:51:32;93637.75;;;8.54;100.00
4590;BME280;2307;48.448;9.216;2022-09-28T01:54:02;93634.59;;;8.52;100.00
4590;BME280;2307;48.448;9.216;2022-09-28T01:56:33;93629.88;;;8.49;100.00
4590;BME280;2307;48.448;9.216;2022-09-28T01:59:04;93628.28;;;8.48;100.00
4590;BME280;2307;48.448;9.216;2022-09-28T02:01:35;93624.59;;;8.44;100.00
4590;BME280;2307;48.448;9.216;2022-09-28T02:04:03;93625.16;;;8.46;100.00
4590;BME280;2307;48.448;9.216;2022-09-28T02:06:34;93625.16;;;8.46;100.00
4590;BME280;2307;48.448;9.216;2022-09-28T02:09:04;93615.94;;;8.39;100.00
4590;BME280;2307;48.448;9.216;2022-09-28T02:11:33;93626.72;;;8.42;100.00
4590;BME280;2307;48.448;9.216;2022-09-28T02:14:02;93609.88;;;8.43;100.00
4590;BME280;2307;48.448;9.216;2022-09-28T02:16:30;93607.25;;;8.38;100.00
4590;BME280;2307;48.448;9.216;2022-09-28T02:19:00;93608.03;;;8.39;100.00
4590;BME280;2307;48.448;9.216;2022-09-28T02:21:28;93612.50;;;8.38;100.00
4590;BME280;2307;48.448;9.216;2022-09-28T02:23:58;93614.09;;;8.39;100.00
4590;BME280;2307;48.448;9.216;2022-09-28T02:26:28;93598.03;;;8.46;100.00
4590;BME280;2307;48.448;9.216;2022-09-28T02:28:55;93587.25;;;8.42;100.00
4590;BME280;2307;48.448;9.216;2022-09-28T02:31:23;93592.25;;;8.49;100.00
4590;BME280;2307;48.448;9.216;2022-09-28T02:33:49;93584.09;;;8.45;100.00
4590;BME280;2307;48.448;9.216;2022-09-28T02:36:18;93592.50;;;8.47;100.00
4590;BME280;2307;48.448;9.216;2022-09-28T02:38:44;93585.69;;;8.41;100.00
4590;BME280;2307;48.448;9.216;2022-09-28T02:41:14;93577.00;;;8.46;100.00
4590;BME280;2307;48.448;9.216;2022-09-28T02:43:49;93577.53;;;8.43;100.00
4590;BME280;2307;48.448;9.216;2022-09-28T02:46:21;93570.69;;;8.42;100.00
4590;BME280;2307;48.448;9.216;2022-09-28T02:48:55;93565.69;;;8.45;100.00
4590;BME280;2307;48.448;9.216;2022-09-28T02:51:29;93556.22;;;8.44;100.00
4590;BME280;2307;48.448;9.216;2022-09-28T02:54:03;93562.53;;;8.48;100.00
4590;BME280;2307;48.448;9.216;2022-09-28T02:56:35;93553.03;;;8.47;100.00
4590;BME280;2307;48.448;9.216;2022-09-28T02:59:07;93544.63;;;8.45;100.00
4590;BME280;2307;48.448;9.216;2022-09-28T03:01:37;93538.06;;;8.48;100.00
4590;BME280;2307;48.448;9.216;2022-09-28T03:04:07;93531.47;;;8.50;100.00
4590;BME280;2307;48.448;9.216;2022-09-28T03:06:39;93538.56;;;8.55;100.00
4590;BME280;2307;48.448;9.216;2022-09-28T03:09:07;93534.09;;;8.56;100.00
4590;BME280;2307;48.448;9.216;2022-09-28T03:11:35;93523.03;;;8.59;100.00
4590;BME280;2307;48.448;9.216;2022-09-28T03:14:03;93521.44;;;8.58;100.00
4590;BME280;2307;48.448;9.216;2022-09-28T03:16:30;93524.31;;;8.66;100.00
4590;BME280;2307;48.448;9.216;2022-09-28T03:18:57;93518.78;;;8.68;100.00
4590;BME280;2307;48.448;9.216;2022-09-28T03:21:23;93519.31;;;8.70;100.00
4590;BME280;2307;48.448;9.216;2022-09-28T03:23:51;93507.19;;;8.74;100.00
4590;BME280;2307;48.448;9.216;2022-09-28T03:26:17;93512.97;;;8.81;100.00
4590;BME280;2307;48.448;9.216;2022-09-28T03:28:43;93507.16;;;8.79;100.00
4590;BME280;2307;48.448;9.216;2022-09-28T03:31:10;93514.56;;;8.77;100.00
4590;BME280;2307;48.448;9.216;2022-09-28T03:33:36;93501.91;;;8.79;100.00
4590;BME280;2307;48.448;9.216;2022-09-28T03:36:03;93509.28;;;8.77;100.00
4590;BME280;2307;48.448;9.216;2022-09-28T03:38:29;93521.88;;;8.85;100.00
4590;BME280;2307;48.448;9.216;2022-09-28T03:40:58;93512.38;;;8.89;100.00
4590;BME280;2307;48.448;9.216;2022-09-28T03:43:25;93510.28;;;8.91;100.00
4590;BME280;2307;48.448;9.216;2022-09-28T03:45:52;93498.72;;;8.87;100.00
4590;BME280;2307;48.448;9.216;2022-09-28T03:48:22;93495.56;;;8.85;100.00
4590;BME280;2307;48.448;9.216;2022-09-28T03:50:51;93502.69;;;8.79;100.00
4590;BME280;2307;48.448;9.216;2022-09-28T03:53:17;93501.09;;;8.83;100.00
4590;BME280;2307;48.448;9.216;2022-09-28T03:55:44;93492.63;;;8.91;100.00
4590;BME280;2307;48.448;9.216;2022-09-28T03:58:11;93486.31;;;8.92;100.00
4590;BME280;2307;48.448;9.216;2022-09-28T04:00:38;93485.53;;;8.97;100.00
4590;BME280;2307;48.448;9.216;2022-09-28T04:03:04;93497.09;;;8.96;100.00
4590;BME280;2307;48.448;9.216;2022-09-28T04:05:31;93488.63;;;9.04;100.00
4590;BME280;2307;48.448;9.216;2022-09-28T04:07:57;93476.28;;;8.99;100.00
4590;BME280;2307;48.448;9.216;2022-09-28T04:10:23;93482.88;;;8.97;100.00
4590;BME280;2307;48.448;9.216;2022-09-28T04:12:52;93497.34;;;8.99;100.00
4590;BME280;2307;48.448;9.216;2022-09-28T04:15:20;93483.34;;;9.04;100.00
4590;BME280;2307;48.448;9.216;2022-09-28T04:17:46;93493.63;;;9.05;100.00
4590;BME280;2307;48.448;9.216;2022-09-28T04:20:13;93493.84;;;9.14;100.00
4590;BME280;2307;48.448;9.216;2022-09-28T04:22:40;93489.16;;;9.06;100.00
4590;BME280;2307;48.448;9.216;2022-09-28T04:25:06;93490.50;;;8.98;100.00
4590;BME280;2307;48.448;9.216;2022-09-28T04:27:33;93482.84;;;9.02;100.00
4590;BME280;2307;48.448;9.216;2022-09-28T04:30:17;93493.13;;;9.03;100.00
4590;BME280;2307;48.448;9.216;2022-09-28T04:32:46;93485.97;;;9.09;100.00
4590;BME280;2307;48.448;9.216;2022-09-28T04:35:12;93494.94;;;9.08;100.00
4590;BME280;2307;48.448;9.216;2022-09-28T04:37:39;93488.38;;;9.05;100.00
4590;BME280;2307;48.448;9.216;2022-09-28T04:40:05;93484.41;;;9.08;100.00
4590;BME280;2307;48.448;9.216;2022-09-28T04:42:32;93483.91;;;9.01;100.00
4590;BME280;2307;48.448;9.216;2022-09-28T04:44:58;93483.94;;;8.96;100.00
4590;BME280;2307;48.448;9.216;2022-09-28T04:47:27;93482.34;;;9.00;100.00
4590;BME280;2307;48.448;9.216;2022-09-28T04:49:55;93482.34;;;9.00;100.00
4590;BME280;2307;48.448;9.216;2022-09-28T04:52:22;93484.19;;;8.94;100.00
4590;BME280;2307;48.448;9.216;2022-09-28T04:54:48;93484.22;;;8.89;100.00
4590;BME280;2307;48.448;9.216;2022-09-28T04:57:14;93489.78;;;8.88;100.00
4590;BME280;2307;48.448;9.216;2022-09-28T04:59:41;93480.00;;;8.93;100.00
4590;BME280;2307;48.448;9.216;2022-09-28T05:02:07;93487.91;;;8.88;100.00
4590;BME280;2307;48.448;9.216;2022-09-28T05:04:34;93485.28;;;8.93;100.00
4590;BME280;2307;48.448;9.216;2022-09-28T05:07:02;93492.88;;;8.95;100.00
4590;BME280;2307;48.448;9.216;2022-09-28T05:09:28;93492.09;;;8.94;100.00
4590;BME280;2307;48.448;9.216;2022-09-28T05:11:54;93494.97;;;9.03;100.00
4590;BME280;2307;48.448;9.216;2022-09-28T05:14:21;93498.94;;;9.00;100.00
4590;BME280;2307;48.448;9.216;2022-09-28T05:16:47;93497.06;;;9.06;100.00
4590;BME280;2307;48.448;9.216;2022-09-28T05:19:13;93499.94;;;9.04;100.00
4590;BME280;2307;48.448;9.216;2022-09-28T05:21:43;93502.88;;;9.03;100.00
4590;BME280;2307;48.448;9.216;2022-09-28T05:24:11;93500.97;;;9.08;100.00
4590;BME280;2307;48.448;9.216;2022-09-28T05:26:37;93496.50;;;9.09;100.00
4590;BME280;2307;48.448;9.216;2022-09-28T05:29:04;93500.44;;;9.12;100.00
4590;BME280;2307;48.448;9.216;2022-09-28T05:31:30;93504.41;;;9.09;100.00
4590;BME280;2307;48.448;9.216;2022-09-28T05:33:57;93511.47;;;9.19;100.00
4590;BME280;2307;48.448;9.216;2022-09-28T05:36:23;93516.44;;;9.25;100.00
4590;BME280;2307;48.448;9.216;2022-09-28T05:38:50;93511.47;;;9.19;100.00
4590;BME280;2307;48.448;9.216;2022-09-28T05:41:18;93504.63;;;9.18;100.00
4590;BME280;2307;48.448;9.216;2022-09-28T05:43:44;93521.72;;;9.20;100.00
4590;BME280;2307;48.448;9.216;2022-09-28T05:46:11;93527.81;;;9.16;100.00
4590;BME280;2307;48.448;9.216;2022-09-28T05:48:37;93535.50;;;9.02;100.00
4590;BME280;2307;48.448;9.216;2022-09-28T05:51:04;93549.22;;;8.99;100.00
4590;BME280;2307;48.448;9.216;2022-09-28T05:53:30;93537.19;;;8.73;100.00
4590;BME280;2307;48.448;9.216;2022-09-28T05:55:57;93540.91;;;8.57;100.00
4590;BME280;2307;48.448;9.216;2022-09-28T05:58:25;93544.59;;;8.66;100.00
4590;BME280;2307;48.448;9.216;2022-09-28T06:00:52;93544.91;;;8.49;100.00
4590;BME280;2307;48.448;9.216;2022-09-28T06:03:19;93546.47;;;8.45;100.00
4590;BME280;2307;48.448;9.216;2022-09-28T06:05:45;93549.38;;;8.43;100.00
4590;BME280;2307;48.448;9.216;2022-09-28T06:08:12;93550.44;;;8.42;100.00
4590;BME280;2307;48.448;9.216;2022-09-28T06:10:38;93553.81;;;8.53;100.00
4590;BME280;2307;48.448;9.216;2022-09-28T06:13:05;93568.28;;;8.50;100.00
4590;BME280;2307;48.448;9.216;2022-09-28T06:15:33;93564.34;;;8.58;100.00
4590;BME280;2307;48.448;9.216;2022-09-28T06:18:00;93559.88;;;8.53;100.00
4590;BME280;2307;48.448;9.216;2022-09-28T06:20:28;93554.09;;;8.51;100.00
4590;BME280;2307;48.448;9.216;2022-09-28T06:22:55;93560.94;;;8.47;100.00
4590;BME280;2307;48.448;9.216;2022-09-28T06:25:21;93560.69;;;8.49;100.00
4590;BME280;2307;48.448;9.216;2022-09-28T06:27:55;93569.34;;;8.44;100.00
4590;BME280;2307;48.448;9.216;2022-09-28T06:30:21;93572.81;;;8.40;100.00
4590;BME280;2307;48.448;9.216;2022-09-28T06:32:52;93579.63;;;8.41;100.00
4590;BME280;2307;48.448;9.216;2022-09-28T06:35:18;93589.34;;;8.45;100.00
4590;BME280;2307;48.448;9.216;2022-09-28T06:37:45;93591.47;;;8.43;100.00
4590;BME280;2307;48.448;9.216;2022-09-28T06:40:12;93586.47;;;8.42;100.00
4590;BME280;2307;48.448;9.216;2022-09-28T06:42:38;93599.88;;;8.40;100.00
4590;BME280;2307;48.448;9.216;2022-09-28T06:45:05;93605.66;;;8.42;100.00
4590;BME280;2307;48.448;9.216;2022-09-28T06:47:32;93615.41;;;8.42;100.00
4590;BME280;2307;48.448;9.216;2022-09-28T06:50:00;93613.56;;;8.42;100.00
4590;BME280;2307;48.448;9.216;2022-09-28T06:52:27;93616.97;;;8.38;100.00
4590;BME280;2307;48.448;9.216;2022-09-28T06:54:53;93623.56;;;8.35;100.00
4590;BME280;2307;48.448;9.216;2022-09-28T06:57:19;93629.34;;;8.42;100.00
4590;BME280;2307;48.448;9.216;2022-09-28T06:59:46;93631.44;;;8.40;100.00
4590;BME280;2307;48.448;9.216;2022-09-28T07:02:12;93636.69;;;8.40;100.00
4590;BME280;2307;48.448;9.216;2022-09-28T07:04:39;93643.53;;;8.41;100.00
4590;BME280;2307;48.448;9.216;2022-09-28T07:07:08;93646.16;;;8.41;100.00
4590;BME280;2307;48.448;9.216;2022-09-28T07:09:34;93653.28;;;8.36;100.00
4590;BME280;2307;48.448;9.216;2022-09-28T07:12:01;93655.91;;;8.46;100.00
4590;BME280;2307;48.448;9.216;2022-09-28T07:14:28;93656.72;;;8.46;100.00
4590;BME280;2307;48.448;9.216;2022-09-28T07:16:55;93663.81;;;8.36;100.00
4590;BME280;2307;48.448;9.216;2022-09-28T07:19:21;93658.78;;;8.34;100.00
4590;BME280;2307;48.448;9.216;2022-09-28T07:21:50;93666.16;;;8.42;100.00
4590;BME280;2307;48.448;9.216;2022-09-28T07:24:17;93674.06;;;8.52;100.00
4590;BME280;2307;48.448;9.216;2022-09-28T07:26:44;93674.59;;;8.65;100.00
4590;BME280;2307;48.448;9.216;2022-09-28T07:29:10;93683.25;;;8.60;100.00
4590;BME280;2307;48.448;9.216;2022-09-28T07:31:37;93686.16;;;8.69;100.00
4590;BME280;2307;48.448;9.216;2022-09-28T07:34:04;93688.78;;;8.84;100.00
4590;BME280;2307;48.448;9.216;2022-09-28T07:36:30;93688.25;;;8.87;100.00
4590;BME280;2307;48.448;9.216;2022-09-28T07:38:59;93697.44;;;8.89;100.00
4590;BME280;2307;48.448;9.216;2022-09-28T07:41:26;93694.31;;;8.77;100.00
4590;BME280;2307;48.448;9.216;2022-09-28T07:43:56;93694.56;;;8.76;100.00
4590;BME280;2307;48.448;9.216;2022-09-28T07:46:23;93696.94;;;8.72;100.00
4590;BME280;2307;48.448;9.216;2022-09-28T07:48:49;93692.97;;;8.70;100.00
4590;BME280;2307;48.448;9.216;2022-09-28T07:51:16;93696.69;;;8.48;100.00
4590;BME280;2307;48.448;9.216;2022-09-28T07:53:43;93702.47;;;8.66;100.00
4590;BME280;2307;48.448;9.216;2022-09-28T07:56:10;93703.50;;;8.70;100.00
4590;BME280;2307;48.448;9.216;2022-09-28T07:58:39;93703.78;;;8.78;100.00
4590;BME280;2307;48.448;9.216;2022-09-28T08:01:06;93706.38;;;8.88;100.00
4590;BME280;2307;48.448;9.216;2022-09-28T08:03:32;93705.59;;;9.03;100.00
4590;BME280;2307;48.448;9.216;2022-09-28T08:05:59;93715.06;;;9.09;100.00
4590;BME280;2307;48.448;9.216;2022-09-28T08:08:26;93710.06;;;9.13;100.00
4590;BME280;2307;48.448;9.216;2022-09-28T08:10:54;93709.25;;;9.17;100.00
4590;BME280;2307;48.448;9.216;2022-09-28T08:13:20;93716.09;;;9.18;100.00
4590;BME280;2307;48.448;9.216;2022-09-28T08:15:50;93720.06;;;9.11;100.00
4590;BME280;2307;48.448;9.216;2022-09-28T08:18:17;93714.53;;;9.12;100.00
4590;BME280;2307;48.448;9.216;2022-09-28T08:20:44;93717.16;;;9.22;100.00
4590;BME280;2307;48.448;9.216;2022-09-28T08:23:27;93721.38;;;9.18;100.00
4590;BME280;2307;48.448;9.216;2022-09-28T08:25:54;93712.16;;;9.16;100.00
4590;BME280;2307;48.448;9.216;2022-09-28T08:28:21;93726.09;;;9.11;100.00
4590;BME280;2307;48.448;9.216;2022-09-28T08:30:47;93716.13;;;9.08;100.00
4590;BME280;2307;48.448;9.216;2022-09-28T08:33:16;93723.22;;;9.02;100.00
4590;BME280;2307;48.448;9.216;2022-09-28T08:35:44;93720.84;;;9.01;100.00
4590;BME280;2307;48.448;9.216;2022-09-28T08:38:10;93722.44;;;9.02;100.00
4590;BME280;2307;48.448;9.216;2022-09-28T08:40:40;93734.28;;;9.10;100.00
4590;BME280;2307;48.448;9.216;2022-09-28T08:43:14;93749.81;;;9.01;100.00
4590;BME280;2307;48.448;9.216;2022-09-28T08:45:46;93761.94;;;8.97;100.00
4590;BME280;2307;48.448;9.216;2022-09-28T08:48:14;93763.00;;;8.71;100.00
4590;BME280;2307;48.448;9.216;2022-09-28T08:51:02;93751.91;;;8.53;100.00
4590;BME280;2307;48.448;9.216;2022-09-28T08:53:32;93770.38;;;8.59;100.00
4590;BME280;2307;48.448;9.216;2022-09-28T08:56:01;93764.53;;;8.41;100.00
4590;BME280;2307;48.448;9.216;2022-09-28T08:58:30;93774.50;;;8.34;100.00
4590;BME280;2307;48.448;9.216;2022-09-28T09:00:58;93769.25;;;8.34;100.00
4590;BME280;2307;48.448;9.216;2022-09-28T09:03:28;93773.75;;;8.34;100.00
4590;BME280;2307;48.448;9.216;2022-09-28T09:05:57;93779.25;;;8.37;100.00
4590;BME280;2307;48.448;9.216;2022-09-28T09:08:32;93774.00;;;8.37;100.00
4590;BME280;2307;48.448;9.216;2022-09-28T09:11:07;93778.72;;;8.40;100.00
4590;BME280;2307;48.448;9.216;2022-09-28T09:16:20;93768.22;;;8.50;100.00
4590;BME280;2307;48.448;9.216;2022-09-28T09:18:52;93779.28;;;8.58;100.00
4590;BME280;2307;48.448;9.216;2022-09-28T09:21:25;93789.81;;;8.58;100.00
4590;BME280;2307;48.448;9.216;2022-09-28T09:23:56;93791.38;;;8.53;100.00
4590;BME280;2307;48.448;9.216;2022-09-28T09:26:30;93797.75;;;8.68;100.00
4590;BME280;2307;48.448;9.216;2022-09-28T09:29:02;93807.47;;;8.82;100.00
4590;BME280;2307;48.448;9.216;2022-09-28T09:31:36;93809.31;;;8.77;100.00
4590;BME280;2307;48.448;9.216;2022-09-28T09:37:00;93811.44;;;8.80;100.00
4590;BME280;2307;48.448;9.216;2022-09-28T09:39:36;93814.59;;;8.77;100.00
4590;BME280;2307;48.448;9.216;2022-09-28T09:42:09;93816.69;;;8.80;100.00
4590;BME280;2307;48.448;9.216;2022-09-28T09:44:47;93816.72;;;8.90;100.00
4590;BME280;2307;48.448;9.216;2022-09-28T09:47:19;93814.59;;;8.92;100.00
4590;BME280;2307;48.448;9.216;2022-09-28T09:49:49;93823.81;;;9.04;100.00
4590;BME280;2307;48.448;9.216;2022-09-28T09:52:17;93818.78;;;9.23;100.00
4590;BME280;2307;48.448;9.216;2022-09-28T09:54:49;93823.81;;;9.20;100.00
4590;BME280;2307;48.448;9.216;2022-09-28T09:57:17;93818.03;;;9.23;100.00
4590;BME280;2307;48.448;9.216;2022-09-28T09:59:46;93821.97;;;9.25;100.00
4590;BME280;2307;48.448;9.216;2022-09-28T10:02:23;93817.75;;;9.29;100.00
4590;BME280;2307;48.448;9.216;2022-09-28T10:04:51;93809.59;;;9.31;100.00
4590;BME280;2307;48.448;9.216;2022-09-28T10:07:20;93807.19;;;9.39;100.00
4590;BME280;2307;48.448;9.216;2022-09-28T10:09:49;93798.00;;;9.27;100.00
4590;BME280;2307;48.448;9.216;2022-09-28T10:12:18;93799.84;;;9.01;100.00
4590;BME280;2307;48.448;9.216;2022-09-28T10:14:45;93811.94;;;9.07;100.00
4590;BME280;2307;48.448;9.216;2022-09-28T10:17:12;93797.50;;;9.10;100.00
4590;BME280;2307;48.448;9.216;2022-09-28T10:19:41;93806.69;;;9.12;100.00
4590;BME280;2307;48.448;9.216;2022-09-28T10:22:09;93800.09;;;9.20;100.00
4590;BME280;2307;48.448;9.216;2022-09-28T10:24:39;93804.59;;;9.14;100.00
4590;BME280;2307;48.448;9.216;2022-09-28T10:27:12;93799.31;;;9.24;100.00
4590;BME280;2307;48.448;9.216;2022-09-28T10:29:42;93803.53;;;9.30;100.00
4590;BME280;2307;48.448;9.216;2022-09-28T10:32:20;93811.66;;;9.39;100.00
4590;BME280;2307;48.448;9.216;2022-09-28T10:34:47;93804.78;;;9.58;100.00
4590;BME280;2307;48.448;9.216;2022-09-28T10:37:13;93804.25;;;9.66;100.00
4590;BME280;2307;48.448;9.216;2022-09-28T10:39:44;93799.72;;;9.82;100.00
4590;BME280;2307;48.448;9.216;2022-09-28T10:42:17;93798.38;;;9.94;100.00
4590;BME280;2307;48.448;9.216;2022-09-28T10:44:49;93803.38;;;9.91;100.00
4590;BME280;2307;48.448;9.216;2022-09-28T10:47:17;93793.88;;;9.95;100.00
4590;BME280;2307;48.448;9.216;2022-09-28T10:49:44;93799.13;;;10.00;100.00
4590;BME280;2307;48.448;9.216;2022-09-28T10:52:32;93802.84;;;9.94;100.00
4590;BME280;2307;48.448;9.216;2022-09-28T10:54:58;93806.50;;;10.08;100.00
4590;BME280;2307;48.448;9.216;2022-09-28T10:57:27;93803.28;;;10.21;100.00
4590;BME280;2307;48.448;9.216;2022-09-28T10:59:54;93807.81;;;10.10;100.00
4590;BME280;2307;48.448;9.216;2022-09-28T11:02:20;93807.00;;;10.10;100.00
4590;BME280;2307;48.448;9.216;2022-09-28T11:04:51;93807.25;;;10.08;100.00
4590;BME280;2307;48.448;9.216;2022-09-28T11:07:18;93798.59;;;10.03;100.00
4590;BME280;2307;48.448;9.216;2022-09-28T11:09:46;93803.09;;;9.97;100.00
4590;BME280;2307;48.448;9.216;2022-09-28T11:12:14;93806.50;;;10.03;100.00
4590;BME280;2307;48.448;9.216;2022-09-28T11:14:43;93802.78;;;10.09;100.00
4590;BME280;2307;48.448;9.216;2022-09-28T11:17:14;93794.88;;;10.09;100.00
4590;BME280;2307;48.448;9.216;2022-09-28T11:19:41;93795.91;;;10.13;100.00
4590;BME280;2307;48.448;9.216;2022-09-28T11:22:21;93794.88;;;10.09;100.00
4590;BME280;2307;48.448;9.216;2022-09-28T11:24:48;93791.16;;;10.20;100.00
4590;BME280;2307;48.448;9.216;2022-09-28T11:27:19;93796.44;;;10.15;100.00
4590;BME280;2307;48.448;9.216;2022-09-28T11:29:51;93795.56;;;10.40;100.00
4590;BME280;2307;48.448;9.216;2022-09-28T11:32:20;93792.94;;;10.40;100.00
4590;BME280;2307;48.448;9.216;2022-09-28T11:34:47;93805.88;;;10.36;100.00
4590;BME280;2307;48.448;9.216;2022-09-28T11:37:19;93803.75;;;10.38;100.00
4590;BME280;2307;48.448;9.216;2022-09-28T11:39:52;93798.75;;;10.32;100.00
4590;BME280;2307;48.448;9.216;2022-09-28T11:42:24;93792.09;;;10.44;100.00
4590;BME280;2307;48.448;9.216;2022-09-28T11:44:57;93802.09;;;10.47;100.00
4590;BME280;2307;48.448;9.216;2022-09-28T11:47:36;93806.59;;;10.47;100.00
4590;BME280;2307;48.448;9.216;2022-09-28T11:50:07;93803.19;;;10.41;100.00
4590;BME280;2307;48.448;9.216;2022-09-28T11:52:41;93801.34;;;10.42;100.00
4590;BME280;2307;48.448;9.216;2022-09-28T11:55:10;93799.66;;;10.56;100.00
4590;BME280;2307;48.448;9.216;2022-09-28T11:57:39;93808.13;;;10.53;100.00
4590;BME280;2307;48.448;9.216;2022-09-28T12:00:11;93799.84;;;10.70;100.00
4590;BME280;2307;48.448;9.216;2022-09-28T12:02:40;93800.09;;;10.73;100.00
4590;BME280;2307;48.448;9.216;2022-09-28T12:05:10;93801.69;;;10.74;100.00
4590;BME280;2307;48.448;9.216;2022-09-28T12:07:39;93803.25;;;10.75;100.00
4590;BME280;2307;48.448;9.216;2022-09-28T12:10:09;93798.25;;;10.74;100.00
4590;BME280;2307;48.448;9.216;2022-09-28T12:12:39;93800.09;;;10.73;100.00
4590;BME280;2307;48.448;9.216;2022-09-28T12:15:13;93794.56;;;10.70;100.00
4590;BME280;2307;48.448;9.216;2022-09-28T12:17:41;93795.31;;;10.75;100.00
4590;BME280;2307;48.448;9.216;2022-09-28T12:20:13;93801.16;;;10.72;100.00
4590;BME280;2307;48.448;9.216;2022-09-28T12:22:43;93798.06;;;10.60;100.00
4590;BME280;2307;48.448;9.216;2022-09-28T12:25:11;93799.06;;;10.69;100.00
4590;BME280;2307;48.448;9.216;2022-09-28T12:27:39;93801.44;;;10.71;100.00
4590;BME280;2307;48.448;9.216;2022-09-28T12:30:13;93804.09;;;10.71;100.00
4590;BME280;2307;48.448;9.216;2022-09-28T12:32:41;93806.97;;;10.69;100.00
4590;BME280;2307;48.448;9.216;2022-09-28T12:35:10;93803.03;;;10.66;100.00
4590;BME280;2307;48.448;9.216;2022-09-28T12:37:40;93808.38;;;10.61;100.00
4590;BME280;2307;48.448;9.216;2022-09-28T12:42:56;93808.81;;;10.74;100.00
4590;BME280;2307;48.448;9.216;2022-09-28T12:45:42;93809.84;;;10.78;100.00
4590;BME280;2307;48.448;9.216;2022-09-28T12:51:07;93806.84;;;10.89;100.00
4590;BME280;2307;48.448;9.216;2022-09-28T12:53:44;93801.31;;;10.91;100.00
4590;BME280;2307;48.448;9.216;2022-09-28T12:56:15;93806.63;;;10.86;100.00
4590;BME280;2307;48.448;9.216;2022-09-28T12:58:50;93811.34;;;10.94;100.00
4590;BME280;2307;48.448;9.216;2022-09-28T13:01:33;93805.56;;;10.87;100.00
4590;BME280;2307;48.448;9.216;2022-09-28T13:04:08;93799.19;;;10.93;100.00
4590;BME280;2307;48.448;9.216;2022-09-28T13:06:55;93800.91;;;11.07;100.00
4590;BME280;2307;48.448;9.216;2022-09-28T13:09:25;93797.94;;;11.14;100.00
4590;BME280;2307;48.448;9.216;2022-09-28T13:12:04;93800.59;;;11.14;100.00
4590;BME280;2307;48.448;9.216;2022-09-28T13:17:19;93798.25;;;11.07;100.00
4590;BME280;2307;48.448;9.216;2022-09-28T13:19:52;93792.16;;;11.12;100.00
4590;BME280;2307;48.448;9.216;2022-09-28T13:22:25;93797.09;;;10.85;100.00
4590;BME280;2307;48.448;9.216;2022-09-28T13:24:54;93798.50;;;10.72;100.00
4590;BME280;2307;48.448;9.216;2022-09-28T13:27:23;93790.94;;;10.60;100.00
4590;BME280;2307;48.448;9.216;2022-09-28T13:29:51;93800.34;;;10.77;100.00
4590;BME280;2307;48.448;9.216;2022-09-28T13:32:19;93797.66;;;10.82;100.00
4590;BME280;2307;48.448;9.216;2022-09-28T13:34:46;93799.19;;;10.93;100.00
4590;BME280;2307;48.448;9.216;2022-09-28T13:37:18;93799.69;;;10.95;100.00
4590;BME280;2307;48.448;9.216;2022-09-28T13:39:46;93792.50;;;11.00;100.00
4590;BME280;2307;48.448;9.216;2022-09-28T13:48:03;93809.16;;;11.01;100.00
4590;BME280;2307;48.448;9.216;2022-09-28T13:50:37;93813.84;;;11.09;100.00
4590;BME280;2307;48.448;9.216;2022-09-28T13:53:10;93821.56;;;11.00;100.00
4590;BME280;2307;48.448;9.216;2022-09-28T13:55:46;93819.13;;;11.09;100.00